createdAt,value
2022-10-11T00:02:02.056Z,11.85
2022-10-11T00:04:28.563Z,11.70
2022-10-11T00:06:55.105Z,10.40
2022-10-11T00:09:21.707Z,12.13
2022-10-11T00:11:48.243Z,10.70
2022-10-11T00:14:14.896Z,10.90
2022-10-11T00:16:44.515Z,11.13
2022-10-11T00:19:11.543Z,13.52
2022-10-11T00:21:38.183Z,10.70
2022-10-11T00:24:05.509Z,9.32
2022-10-11T00:26:32.159Z,10.18
2022-10-11T00:28:58.794Z,11.15
2022-10-11T00:31:25.482Z,11.43
2022-10-11T00:33:53.797Z,11.20
2022-10-11T00:36:20.883Z,13.10
2022-10-11T00:38:47.495Z,10.88
2022-10-11T00:41:15.002Z,15.63
2022-10-11T00:43:42.119Z,14.10
2022-10-11T00:46:17.779Z,16.92
2022-10-11T00:49:07.465Z,11.60
2022-10-11T00:51:41.553Z,10.70
2022-10-11T00:54:13.727Z,13.10
2022-10-11T00:56:43.976Z,14.00
2022-10-11T00:59:19.055Z,12.13
2022-10-11T01:01:45.802Z,11.60
2022-10-11T01:04:12.498Z,14.63
2022-10-11T01:06:40.222Z,13.00
2022-10-11T01:09:07.083Z,19.15
2022-10-11T01:11:37.796Z,12.45
2022-10-11T01:14:29.698Z,11.75
2022-10-11T01:17:13.143Z,13.10
2022-10-11T01:20:15.990Z,12.57
2022-10-11T01:22:57.657Z,15.13
2022-10-11T01:25:36.333Z,13.02
2022-10-11T01:28:11.887Z,11.15
2022-10-11T01:30:38.905Z,14.70
2022-10-11T01:33:25.872Z,16.73
2022-10-11T01:36:04.358Z,11.68
2022-10-11T01:38:51.723Z,14.32
2022-10-11T01:41:27.974Z,13.30
2022-10-11T01:44:00.012Z,13.05
2022-10-11T01:46:28.606Z,15.18
2022-10-11T01:48:57.767Z,13.30
2022-10-11T01:51:31.698Z,13.75
2022-10-11T01:54:23.144Z,13.07
2022-10-11T01:57:10.825Z,13.02
2022-10-11T02:00:28.768Z,12.73
2022-10-11T02:03:12.395Z,16.90
2022-10-11T02:05:55.733Z,14.10
2022-10-11T02:08:31.231Z,16.95
2022-10-11T02:11:13.420Z,17.73
2022-10-11T02:13:44.540Z,15.55
2022-10-11T02:16:14.595Z,16.30
2022-10-11T02:18:50.188Z,14.70
2022-10-11T02:21:20.290Z,17.58
2022-10-11T02:24:06.454Z,13.82
2022-10-11T02:26:35.230Z,20.02
2022-10-11T02:29:06.512Z,18.10
2022-10-11T02:31:35.932Z,17.15
2022-10-11T02:34:33.576Z,15.05
2022-10-11T02:37:11.994Z,14.45
2022-10-11T02:40:01.871Z,15.90
2022-10-11T02:42:37.224Z,13.98
2022-10-11T02:45:11.188Z,16.77
2022-10-11T02:47:38.636Z,14.45
2022-10-11T02:50:05.783Z,15.38
2022-10-11T02:52:32.324Z,12.75
2022-10-11T02:54:58.884Z,15.90
2022-10-11T02:57:25.544Z,15.90
2022-10-11T02:59:52.246Z,16.48
2022-10-11T03:02:18.880Z,12.85
2022-10-11T03:04:45.558Z,13.68
2022-10-11T03:07:12.160Z,17.00
2022-10-11T03:09:38.851Z,16.92
2022-10-11T03:12:05.531Z,16.38
2022-10-11T03:14:32.117Z,15.00
2022-10-11T03:17:17.340Z,13.57
2022-10-11T03:19:47.638Z,16.65
2022-10-11T03:22:14.327Z,16.83
2022-10-11T03:24:40.934Z,16.17
2022-10-11T03:27:07.717Z,16.83
2022-10-11T03:29:34.366Z,12.02
2022-10-11T03:32:00.928Z,14.63
2022-10-11T03:34:27.509Z,13.23
2022-10-11T03:36:54.096Z,12.73
2022-10-11T03:39:20.965Z,14.70
2022-10-11T03:41:47.679Z,16.48
2022-10-11T03:44:14.230Z,15.35
2022-10-11T03:46:40.873Z,16.27
2022-10-11T03:49:07.514Z,14.65
2022-10-11T03:51:34.225Z,14.48
2022-10-11T03:54:03.985Z,13.48
2022-10-11T03:56:30.595Z,13.48
2022-10-11T03:58:57.137Z,13.65
2022-10-11T04:01:23.763Z,16.17
2022-10-11T04:03:50.316Z,16.60
2022-10-11T04:06:16.831Z,14.75
2022-10-11T04:08:43.368Z,13.52
2022-10-11T04:11:09.859Z,14.02
2022-10-11T04:13:36.425Z,16.52
2022-10-11T04:16:03.400Z,14.48
2022-10-11T04:18:30.178Z,14.82
2022-10-11T04:20:56.720Z,16.30
2022-10-11T04:23:23.210Z,14.15
2022-10-11T04:25:49.688Z,12.73
2022-10-11T04:28:16.288Z,14.68
2022-10-11T04:30:43.004Z,13.18
2022-10-11T04:33:11.636Z,15.23
2022-10-11T04:35:38.187Z,16.92
2022-10-11T04:38:04.854Z,16.55
2022-10-11T04:40:31.840Z,16.77
2022-10-11T04:42:58.796Z,15.23
2022-10-11T04:45:25.383Z,15.25
2022-10-11T04:47:52.340Z,14.15
2022-10-11T04:50:19.082Z,14.50
2022-10-11T04:52:45.646Z,14.82
2022-10-11T04:55:12.308Z,13.30
2022-10-11T04:57:38.903Z,16.83
2022-10-11T05:00:06.130Z,14.15
2022-10-11T05:02:32.805Z,16.80
2022-10-11T05:04:59.877Z,15.15
2022-10-11T05:07:26.415Z,13.20
2022-10-11T05:09:53.032Z,15.98
2022-10-11T05:12:20.113Z,15.63
2022-10-11T05:14:46.671Z,13.57
2022-10-11T05:17:13.310Z,13.00
2022-10-11T05:19:39.892Z,12.45
2022-10-11T05:22:06.442Z,15.30
2022-10-11T05:24:33.176Z,12.88
2022-10-11T05:27:03.178Z,17.33
2022-10-11T05:29:30.105Z,14.75
2022-10-11T05:31:56.622Z,15.60
2022-10-11T05:34:23.208Z,15.85
2022-10-11T05:36:49.847Z,14.80
2022-10-11T05:39:16.339Z,14.60
2022-10-11T05:41:42.851Z,12.50
2022-10-11T05:44:09.377Z,20.83
2022-10-11T05:46:35.928Z,16.40
2022-10-11T05:49:02.492Z,13.45
2022-10-11T05:51:29.039Z,16.65
2022-10-11T05:53:55.575Z,12.60
2022-10-11T05:56:24.637Z,13.98
2022-10-11T05:58:52.104Z,14.98
2022-10-11T06:01:25.147Z,12.57
2022-10-11T06:03:52.536Z,16.45
2022-10-11T06:06:19.659Z,15.65
2022-10-11T06:08:46.776Z,13.38
2022-10-11T06:11:25.821Z,12.48
2022-10-11T06:14:00.485Z,15.95
2022-10-11T06:16:27.423Z,12.65
2022-10-11T06:18:55.089Z,15.57
2022-10-11T06:21:22.305Z,13.48
2022-10-11T06:23:56.835Z,14.85
2022-10-11T06:26:26.639Z,13.50
2022-10-11T06:28:53.375Z,12.57
2022-10-11T06:31:19.953Z,11.98
2022-10-11T06:33:46.551Z,16.60
2022-10-11T06:36:14.649Z,15.45
2022-10-11T06:38:44.911Z,14.32
2022-10-11T06:41:15.998Z,13.00
2022-10-11T06:43:44.446Z,10.07
2022-10-11T06:46:11.890Z,10.75
2022-10-11T06:48:46.386Z,11.30
2022-10-11T06:51:14.822Z,14.35
2022-10-11T06:53:41.912Z,21.60
2022-10-11T06:56:10.794Z,11.32
2022-10-11T06:58:38.823Z,12.27
2022-10-11T07:01:13.244Z,13.13
2022-10-11T07:03:40.135Z,14.10
2022-10-11T07:06:09.962Z,12.43
2022-10-11T07:08:38.134Z,12.30
2022-10-11T07:11:12.421Z,14.15
2022-10-11T07:13:39.879Z,10.52
2022-10-11T07:16:09.503Z,17.58
2022-10-11T07:18:36.600Z,14.07
2022-10-11T07:21:05.428Z,11.90
2022-10-11T07:23:32.136Z,12.93
2022-10-11T07:25:58.696Z,15.40
2022-10-11T07:28:25.885Z,13.93
2022-10-11T07:30:52.744Z,10.60
2022-10-11T07:33:19.449Z,12.73
2022-10-11T07:35:48.616Z,12.85
2022-10-11T07:38:15.946Z,10.77
2022-10-11T07:40:44.539Z,13.38
2022-10-11T07:43:12.385Z,10.15
2022-10-11T07:45:40.460Z,17.63
2022-10-11T07:48:07.505Z,10.02
2022-10-11T07:50:35.022Z,10.07
2022-10-11T07:53:01.565Z,11.18
2022-10-11T07:55:35.541Z,9.80
2022-10-11T07:58:02.055Z,11.82
2022-10-11T08:00:28.798Z,11.50
2022-10-11T08:02:55.341Z,11.43
2022-10-11T08:05:21.852Z,11.55
2022-10-11T08:07:48.897Z,9.32
2022-10-11T08:10:15.621Z,12.18
2022-10-11T08:12:42.117Z,12.88
2022-10-11T08:15:08.987Z,11.02
2022-10-11T08:17:35.591Z,8.82
2022-10-11T08:20:02.126Z,9.52
2022-10-11T08:22:28.721Z,7.78
2022-10-11T08:24:55.405Z,13.15
2022-10-11T08:27:21.995Z,10.43
2022-10-11T08:29:48.578Z,9.23
2022-10-11T08:32:15.180Z,12.95
2022-10-11T08:34:41.956Z,12.07
2022-10-11T08:37:08.624Z,12.45
2022-10-11T08:39:35.154Z,8.27
2022-10-11T08:42:32.272Z,9.13
2022-10-11T08:45:10.943Z,14.27
2022-10-11T08:47:43.082Z,11.55
2022-10-11T08:50:19.840Z,10.52
2022-10-11T08:52:56.856Z,9.57
2022-10-11T08:55:37.891Z,7.70
2022-10-11T08:58:04.556Z,9.82
2022-10-11T09:00:35.415Z,10.32
2022-10-11T09:03:21.726Z,15.48
2022-10-11T09:06:25.488Z,9.25
2022-10-11T09:08:57.811Z,7.80
2022-10-11T09:11:39.533Z,12.63
2022-10-11T09:14:24.876Z,9.25
2022-10-11T09:17:24.034Z,9.90
2022-10-11T09:20:23.609Z,9.07
2022-10-11T09:23:04.809Z,10.25
2022-10-11T09:25:53.479Z,6.32
2022-10-11T09:28:57.407Z,12.88
2022-10-11T09:31:28.368Z,9.55
2022-10-11T09:33:56.071Z,9.85
2022-10-11T09:36:34.098Z,10.30
2022-10-11T09:39:22.165Z,11.02
2022-10-11T09:42:08.967Z,12.25
2022-10-11T09:44:39.001Z,10.27
2022-10-11T09:47:06.563Z,10.32
2022-10-11T09:49:42.747Z,14.57
2022-10-11T09:52:16.748Z,12.38
2022-10-11T09:54:49.615Z,15.98
2022-10-11T09:57:24.991Z,12.25
2022-10-11T09:59:59.888Z,11.43
2022-10-11T10:02:31.010Z,8.73
2022-10-11T10:05:25.790Z,9.40
2022-10-11T10:08:04.989Z,10.10
2022-10-11T10:10:44.252Z,10.63
2022-10-11T10:13:23.317Z,12.13
2022-10-11T10:15:53.618Z,14.23
2022-10-11T10:18:35.781Z,11.93
2022-10-11T10:21:04.459Z,11.38
2022-10-11T10:23:36.776Z,9.48
2022-10-11T10:26:17.345Z,8.98
2022-10-11T10:29:02.885Z,9.70
2022-10-11T10:31:54.907Z,12.85
2022-10-11T10:34:29.830Z,14.77
2022-10-11T10:37:02.506Z,18.77
2022-10-11T10:39:47.165Z,14.33
2022-10-11T10:42:19.394Z,12.73
2022-10-11T10:44:53.848Z,10.98
2022-10-11T10:47:46.674Z,10.93
2022-10-11T10:50:16.191Z,14.13
2022-10-11T10:52:47.228Z,11.00
2022-10-11T10:55:31.603Z,12.70
2022-10-11T10:58:22.304Z,15.15
2022-10-11T11:00:52.010Z,12.65
2022-10-11T11:03:27.893Z,14.50
2022-10-11T11:06:07.785Z,13.52
2022-10-11T11:08:49.868Z,12.27
2022-10-11T11:11:38.422Z,12.27
2022-10-11T11:14:28.918Z,18.17
2022-10-11T11:17:15.770Z,11.15
2022-10-11T11:19:57.246Z,11.13
2022-10-11T11:22:40.472Z,9.73
2022-10-11T11:25:49.612Z,12.57
2022-10-11T11:28:51.688Z,11.27
2022-10-11T11:31:36.735Z,27.13
2022-10-11T11:34:12.420Z,12.05
2022-10-11T11:36:55.082Z,9.77
2022-10-11T11:39:43.994Z,10.10
2022-10-11T11:42:23.843Z,9.60
2022-10-11T11:44:51.543Z,9.18
2022-10-11T11:47:31.396Z,9.88
2022-10-11T11:50:22.458Z,7.47
2022-10-11T11:52:55.781Z,7.63
2022-10-11T11:55:38.641Z,7.32
2022-10-11T11:58:08.274Z,6.45
2022-10-11T12:01:12.617Z,8.13
2022-10-11T12:03:43.176Z,6.90
2022-10-11T12:06:30.365Z,7.07
2022-10-11T12:09:27.013Z,6.50
2022-10-11T12:12:08.420Z,5.65
2022-10-11T12:14:38.853Z,7.03
2022-10-11T12:17:11.010Z,5.82
2022-10-11T12:19:39.955Z,6.00
2022-10-11T12:22:28.277Z,6.57
2022-10-11T12:25:00.988Z,6.82
2022-10-11T12:27:48.427Z,8.20
2022-10-11T12:30:42.744Z,8.02
2022-10-11T12:33:16.908Z,5.72
2022-10-11T12:35:57.574Z,6.22
2022-10-11T12:38:40.210Z,6.05
2022-10-11T12:41:09.720Z,8.02
2022-10-11T12:44:02.022Z,7.68
2022-10-11T12:46:28.794Z,7.55
2022-10-11T12:49:04.749Z,5.30
2022-10-11T12:51:50.240Z,4.80
2022-10-11T12:54:43.664Z,7.63
2022-10-11T12:57:46.497Z,3.90
2022-10-11T13:00:33.809Z,6.20
2022-10-11T13:03:28.447Z,4.65
2022-10-11T13:06:01.699Z,5.55
2022-10-11T13:08:35.825Z,4.70
2022-10-11T13:11:06.631Z,20.80
2022-10-11T13:13:39.852Z,5.10
2022-10-11T13:16:14.911Z,4.32
2022-10-11T13:18:44.343Z,7.63
2022-10-11T13:21:29.968Z,4.13
2022-10-11T13:24:03.414Z,4.35
2022-10-11T13:26:31.800Z,3.25
2022-10-11T13:29:00.257Z,5.03
2022-10-11T13:31:27.787Z,6.85
2022-10-11T13:33:57.037Z,3.53
2022-10-11T13:36:27.338Z,3.63
2022-10-11T13:39:00.147Z,5.68
2022-10-11T13:41:29.700Z,6.20
2022-10-11T13:43:58.323Z,5.60
2022-10-11T13:46:27.061Z,6.63
2022-10-11T13:49:00.104Z,3.65
2022-10-11T13:51:30.344Z,5.22
2022-10-11T13:54:07.190Z,5.68
2022-10-11T13:56:44.338Z,3.53
2022-10-11T13:59:23.838Z,4.18
2022-10-11T14:01:58.862Z,3.88
2022-10-11T14:04:29.464Z,4.05
2022-10-11T14:07:02.646Z,4.32
2022-10-11T14:09:33.838Z,6.03
2022-10-11T14:12:32.843Z,5.45
2022-10-11T14:15:01.104Z,6.25
2022-10-11T14:17:43.790Z,4.10
2022-10-11T14:20:39.453Z,33.05
2022-10-11T14:23:06.801Z,4.53
2022-10-11T14:25:34.209Z,6.32
2022-10-11T14:28:01.226Z,5.72
2022-10-11T14:30:28.659Z,6.78
2022-10-11T14:32:59.477Z,5.47
2022-10-11T14:35:28.930Z,6.55
2022-10-11T14:37:55.897Z,4.18
2022-10-11T14:40:25.493Z,4.80
2022-10-11T14:42:52.504Z,4.82
2022-10-11T14:45:21.371Z,2.70
2022-10-11T14:47:48.845Z,5.75
2022-10-11T14:50:42.780Z,5.28
2022-10-11T14:53:11.584Z,5.10
2022-10-11T14:55:39.721Z,6.35
2022-10-11T14:58:07.881Z,12.02
2022-10-11T15:00:35.832Z,6.45
2022-10-11T15:03:03.940Z,6.55
2022-10-11T15:05:33.969Z,4.63
2022-10-11T15:08:02.110Z,4.05
2022-10-11T15:10:34.693Z,4.50
2022-10-11T15:13:02.735Z,3.97
2022-10-11T15:15:32.834Z,3.70
2022-10-11T15:18:01.992Z,4.00
2022-10-11T15:20:31.533Z,4.70
2022-10-11T15:22:59.041Z,3.28
2022-10-11T15:25:27.541Z,6.25
2022-10-11T15:27:54.117Z,6.15
2022-10-11T15:30:27.380Z,10.18
2022-10-11T15:32:54.255Z,6.90
2022-10-11T15:35:22.835Z,4.50
2022-10-11T15:37:53.444Z,8.38
2022-10-11T15:40:25.976Z,2.60
2022-10-11T15:42:54.313Z,5.85
2022-10-11T15:45:22.678Z,5.82
2022-10-11T15:47:50.038Z,6.80
2022-10-11T15:50:34.930Z,3.85
2022-10-11T15:53:06.021Z,3.03
2022-10-11T15:55:34.854Z,3.42
2022-10-11T15:58:02.119Z,3.67
2022-10-11T16:00:29.985Z,9.38
2022-10-11T16:02:58.077Z,9.10
2022-10-11T16:05:26.973Z,7.00
2022-10-11T16:07:54.335Z,4.63
2022-10-11T16:10:21.033Z,5.28
2022-10-11T16:12:47.744Z,4.43
2022-10-11T16:15:15.474Z,2.95
2022-10-11T16:17:42.299Z,4.78
2022-10-11T16:20:09.379Z,15.35
2022-10-11T16:22:36.224Z,11.75
2022-10-11T16:25:04.014Z,8.40
2022-10-11T16:27:31.162Z,6.28
2022-10-11T16:29:58.421Z,4.22
2022-10-11T16:32:25.524Z,3.47
2022-10-11T16:34:52.033Z,2.20
2022-10-11T16:37:19.068Z,6.90
2022-10-11T16:39:46.566Z,5.82
2022-10-11T16:42:13.275Z,6.32
2022-10-11T16:44:40.126Z,7.13
2022-10-11T16:47:07.304Z,7.70
2022-10-11T16:49:34.317Z,12.93
2022-10-11T16:52:04.803Z,20.67
2022-10-11T16:54:31.938Z,38.25
2022-10-11T16:57:00.663Z,66.45
2022-10-11T16:59:27.777Z,79.18
2022-10-11T17:01:55.236Z,97.70
2022-10-11T17:04:22.319Z,168.88
2022-10-11T17:06:49.814Z,162.40
2022-10-11T17:09:16.680Z,96.82
2022-10-11T17:11:44.156Z,16.80
2022-10-11T17:14:12.293Z,7.85
2022-10-11T17:16:39.298Z,9.75
2022-10-11T17:19:10.038Z,13.75
2022-10-11T17:21:36.673Z,9.18
2022-10-11T17:24:03.785Z,12.43
2022-10-11T17:26:30.460Z,21.25
2022-10-11T17:28:58.727Z,18.73
2022-10-11T17:31:26.524Z,14.07
2022-10-11T17:33:54.826Z,16.52
2022-10-11T17:36:24.511Z,17.50
2022-10-11T17:38:51.749Z,27.92
2022-10-11T17:41:20.303Z,106.72
2022-10-11T17:43:47.670Z,151.50
2022-10-11T17:46:16.028Z,171.48
2022-10-11T17:48:44.626Z,108.47
2022-10-11T17:51:20.791Z,69.38
2022-10-11T17:53:48.228Z,102.57
2022-10-11T17:56:17.114Z,22.88
2022-10-11T17:58:44.146Z,7.18
2022-10-11T18:01:14.120Z,7.20
2022-10-11T18:03:41.939Z,9.90
2022-10-11T18:06:11.450Z,11.90
2022-10-11T18:08:40.606Z,8.60
2022-10-11T18:11:17.317Z,11.45
2022-10-11T18:13:46.549Z,13.30
2022-10-11T18:16:15.149Z,11.02
2022-10-11T18:18:42.461Z,6.72
2022-10-11T18:21:09.726Z,9.73
2022-10-11T18:23:38.287Z,12.30
2022-10-11T18:26:15.775Z,15.20
2022-10-11T18:28:44.049Z,19.80
2022-10-11T18:31:14.877Z,18.98
2022-10-11T18:33:42.564Z,15.18
2022-10-11T18:36:11.080Z,37.38
2022-10-11T18:38:39.156Z,38.88
2022-10-11T18:41:08.088Z,31.45
2022-10-11T18:43:35.295Z,23.83
2022-10-11T18:46:07.142Z,18.02
2022-10-11T18:48:34.450Z,23.95
2022-10-11T18:51:06.688Z,19.95
2022-10-11T18:53:35.344Z,21.38
2022-10-11T18:56:04.397Z,21.33
2022-10-11T18:58:32.635Z,17.48
2022-10-11T19:01:08.655Z,15.88
2022-10-11T19:03:36.138Z,13.05
2022-10-11T19:06:09.500Z,12.32
2022-10-11T19:08:36.240Z,11.38
2022-10-11T19:11:07.684Z,10.40
2022-10-11T19:13:35.350Z,11.05
2022-10-11T19:16:16.414Z,8.73
2022-10-11T19:18:44.525Z,6.57
2022-10-11T19:21:13.413Z,9.75
2022-10-11T19:23:45.103Z,10.15
2022-10-11T19:26:16.038Z,7.05
2022-10-11T19:28:43.302Z,7.05
2022-10-11T19:31:13.017Z,10.25
2022-10-11T19:33:39.733Z,18.00
2022-10-11T19:36:07.001Z,38.85
2022-10-11T19:38:35.238Z,34.00
2022-10-11T19:41:03.070Z,20.58
2022-10-11T19:43:29.911Z,12.40
2022-10-11T19:46:05.005Z,7.60
2022-10-11T19:48:31.927Z,6.65
2022-10-11T19:51:23.221Z,10.77
2022-10-11T19:53:58.652Z,12.43
2022-10-11T19:56:26.768Z,13.05
2022-10-11T19:58:53.973Z,13.80
2022-10-11T20:01:28.200Z,16.13
2022-10-11T20:03:59.799Z,14.48
2022-10-11T20:06:28.339Z,16.00
2022-10-11T20:09:16.605Z,13.85
2022-10-11T20:11:42.532Z,16.50
2022-10-11T20:14:09.450Z,15.98
2022-10-11T20:16:36.196Z,17.60
2022-10-11T20:19:02.889Z,22.40
2022-10-11T20:21:30.800Z,18.20
2022-10-11T20:24:02.184Z,19.35
2022-10-11T20:26:30.009Z,13.40
2022-10-11T20:28:57.935Z,11.23
2022-10-11T20:31:31.193Z,13.45
2022-10-11T20:34:01.812Z,7.55
2022-10-11T20:36:30.263Z,13.73
2022-10-11T20:38:58.162Z,9.13
2022-10-11T20:41:31.668Z,14.65
2022-10-11T20:43:59.486Z,12.65
2022-10-11T20:46:28.149Z,11.45
2022-10-11T20:49:01.588Z,17.30
2022-10-11T20:51:30.862Z,14.98
2022-10-11T20:53:58.735Z,12.20
2022-10-11T20:56:25.973Z,23.67
2022-10-11T20:58:54.555Z,32.90
2022-10-11T21:01:23.713Z,22.10
2022-10-11T21:03:50.675Z,32.25
2022-10-11T21:06:17.279Z,30.20
2022-10-11T21:08:44.376Z,29.58
2022-10-11T21:11:11.644Z,18.20
2022-10-11T21:13:38.470Z,18.35
2022-10-11T21:16:11.995Z,18.70
2022-10-11T21:18:39.090Z,25.15
2022-10-11T21:21:11.570Z,18.38
2022-10-11T21:23:38.664Z,22.38
2022-10-11T21:26:07.979Z,14.73
2022-10-11T21:28:34.738Z,15.38
2022-10-11T21:31:09.943Z,13.88
2022-10-11T21:33:37.220Z,14.20
2022-10-11T21:36:09.574Z,17.83
2022-10-11T21:38:37.048Z,14.85
2022-10-11T21:41:12.253Z,15.13
2022-10-11T21:43:39.335Z,14.23
2022-10-11T21:46:17.243Z,17.38
2022-10-11T21:48:43.971Z,13.95
2022-10-11T21:51:15.718Z,10.80
2022-10-11T21:53:42.425Z,11.63
2022-10-11T21:56:08.990Z,10.48
2022-10-11T21:58:35.482Z,11.68
2022-10-11T22:01:02.081Z,8.48
2022-10-11T22:03:28.656Z,8.32
2022-10-11T22:05:55.219Z,10.18
2022-10-11T22:08:21.844Z,8.65
2022-10-11T22:10:57.192Z,17.02
2022-10-11T22:13:25.062Z,10.27
2022-10-11T22:15:51.741Z,11.25
2022-10-11T22:18:18.382Z,11.63
2022-10-11T22:20:45.448Z,9.43
2022-10-11T22:23:12.110Z,16.98
2022-10-11T22:25:39.725Z,13.68
2022-10-11T22:28:07.704Z,11.93
2022-10-11T22:30:34.826Z,19.73
2022-10-11T22:33:01.419Z,23.35
2022-10-11T22:35:28.060Z,20.23
2022-10-11T22:37:54.581Z,22.33
2022-10-11T22:40:21.211Z,18.35
2022-10-11T22:42:48.047Z,17.20
2022-10-11T22:45:14.604Z,16.45
2022-10-11T22:47:41.203Z,15.52
2022-10-11T22:50:08.411Z,12.23
2022-10-11T22:52:35.387Z,16.05
2022-10-11T22:55:02.010Z,15.27
2022-10-11T22:57:28.602Z,9.18
2022-10-11T22:59:55.104Z,12.57
2022-10-11T23:02:21.682Z,12.85
2022-10-11T23:04:48.289Z,15.63
2022-10-11T23:07:14.910Z,11.73
2022-10-11T23:09:41.442Z,11.57
2022-10-11T23:12:08.095Z,8.05
2022-10-11T23:14:34.616Z,12.77
2022-10-11T23:17:01.125Z,10.73
2022-10-11T23:19:27.760Z,11.00
2022-10-11T23:21:54.447Z,12.00
2022-10-11T23:24:21.008Z,12.57
2022-10-11T23:26:47.573Z,12.75
2022-10-11T23:29:14.140Z,9.25
2022-10-11T23:31:40.646Z,13.48
2022-10-11T23:34:07.177Z,13.70
2022-10-11T23:36:33.700Z,7.68
2022-10-11T23:39:00.278Z,12.27
2022-10-11T23:41:29.123Z,12.20
2022-10-11T23:43:56.216Z,8.75
2022-10-11T23:46:23.077Z,9.43
2022-10-11T23:48:49.733Z,11.15
2022-10-11T23:51:16.367Z,13.88
2022-10-11T23:53:42.926Z,9.93
2022-10-11T23:56:10.764Z,11.30
2022-10-11T23:58:37.598Z,9.95
